Terminal Aerodrome Forecast
Issued by NWS

Home | Current Version | Previous Version | Text Only | Print | Product List | Glossary On
Versions: 1 2 3 4 5 6 7 8 9 10 11 12
664
FTUS42 KGSP 232327
TAFAND
TAF
KAND 232327Z 2400/2424 06012G19KT 5SM SHRA BR OVC008
     FM240300 05010G17KT 3SM SHRA BR OVC006
      TEMPO 2403/2407 2SM SHRA BR OVC004
     FM240700 05007KT 3SM -SHRA BR OVC003
     FM241600 05010G17KT 5SM -SHRA OVC005
     FM241900 05011G18KT 6SM -SHRA BR OVC007
     FM242200 03010G17KT P6SM VCSH OVC010=

USA.gov is the U.S. government's official web portal to all federal, state and local government web resources and services.